Time;durP1;ratioP1;P1;durP2;ratioP2;P2;SDS_P1;SDS_P2;PMS_P1;PMS_P2;Temp;Humidity;BMP_temperature;BMP_pressure;BME280_temperature;BME280_humidity;BME280_pressure;Samples;Min_cycle;Max_cycle;Signal;HPM_P1;HPM_P2
2022/09/19 00:01:38;;;;;;;0.10;0.10;;;;;;;12.86;99.87;97198.06;5043150;28;20048;-66
2022/09/19 00:04:06;;;;;;;0.10;0.10;;;;;;;12.87;99.83;97210.63;5026502;28;20076;-65
2022/09/19 00:06:35;;;;;;;0.20;0.20;;;;;;;12.90;99.95;97201.72;5042261;28;20577;-67
2022/09/19 00:09:03;;;;;;;0.20;0.20;;;;;;;12.91;99.74;97193.13;5043382;28;20033;-66
2022/09/19 00:11:29;;;;;;;0.20;0.20;;;;;;;12.93;99.63;97191.97;5044716;28;20048;-66
2022/09/19 00:13:58;;;;;;;0.20;0.20;;;;;;;12.93;99.64;97181.00;5040256;28;20048;-65
2022/09/19 00:16:29;;;;;;;0.10;0.10;;;;;;;12.91;99.38;97184.88;5043863;28;20495;-66
2022/09/19 00:18:57;;;;;;;0.10;0.10;;;;;;;12.91;99.38;97178.63;5043411;28;20052;-66
2022/09/19 00:21:25;;;;;;;0.20;0.20;;;;;;;12.94;99.43;97180.66;5043233;28;20049;-66
2022/09/19 00:26:38;;;;;;;0.10;0.10;;;;;;;12.90;99.54;97169.59;5045433;28;20419;-66
2022/09/19 00:29:08;;;;;;;0.10;0.10;;;;;;;12.93;99.85;97173.56;5043598;28;20143;-66
2022/09/19 00:31:34;;;;;;;0.20;0.20;;;;;;;12.97;99.62;97176.41;5027240;28;20053;-68
2022/09/19 00:34:05;;;;;;;0.17;0.17;;;;;;;12.95;99.55;97152.06;5040662;28;20463;-66
2022/09/19 00:36:31;;;;;;;0.20;0.20;;;;;;;12.91;99.26;97162.94;5021185;28;20037;-66
2022/09/19 00:38:57;;;;;;;0.20;0.20;;;;;;;12.90;99.43;97147.66;5017237;28;20523;-66
2022/09/19 00:41:25;;;;;;;0.10;0.10;;;;;;;12.87;99.41;97153.84;5023701;28;20560;-67
2022/09/19 00:43:53;;;;;;;0.20;0.20;;;;;;;12.89;99.47;97156.25;5022396;28;20115;-67
2022/09/19 00:46:22;;;;;;;0.20;0.20;;;;;;;12.89;99.64;97134.31;5020667;28;20220;-67
2022/09/19 00:48:53;;;;;;;0.10;0.10;;;;;;;12.94;99.44;97135.97;5058271;28;20535;-67
2022/09/19 00:51:28;;;;;;;0.10;0.10;;;;;;;12.95;99.45;97135.63;5061102;28;20067;-66
2022/09/19 00:53:55;;;;;;;0.20;0.20;;;;;;;12.96;99.40;97144.66;5062362;28;20043;-65
2022/09/19 00:56:22;;;;;;;0.10;0.10;;;;;;;12.99;98.96;97138.44;5062802;28;20041;-66
2022/09/19 00:58:49;;;;;;;0.20;0.20;;;;;;;13.02;98.77;97127.53;5059663;28;20040;-65
2022/09/19 01:01:15;;;;;;;0.20;0.20;;;;;;;13.04;99.05;97128.00;5063744;28;20048;-68
2022/09/19 01:03:45;;;;;;;0.20;0.20;;;;;;;13.05;98.76;97124.13;5060399;28;20051;-66
2022/09/19 01:06:39;;;;;;;0.20;0.20;;;;;;;13.07;98.68;97131.19;5044596;28;20044;-66
2022/09/19 01:09:38;;;;;;;0.47;0.20;;;;;;;13.09;98.22;97131.63;5061693;28;20132;-66
2022/09/19 01:12:31;;;;;;;0.20;0.20;;;;;;;13.11;98.16;97130.13;5063490;28;20064;-66
2022/09/19 01:15:19;;;;;;;0.20;0.20;;;;;;;13.17;98.30;97111.41;5061602;28;20075;-66
2022/09/19 01:17:47;;;;;;;0.10;0.10;;;;;;;13.19;97.69;97123.63;5060711;28;20515;-65
2022/09/19 01:20:42;;;;;;;0.20;0.20;;;;;;;13.22;97.55;97119.38;5059091;28;20508;-67
2022/09/19 01:23:32;;;;;;;0.20;0.20;;;;;;;13.09;97.58;97085.00;5060146;28;20055;-65
2022/09/19 01:26:10;;;;;;;0.20;0.20;;;;;;;13.21;97.38;97122.47;5062274;28;20044;-65
2022/09/19 01:28:43;;;;;;;0.20;0.20;;;;;;;13.23;97.57;97110.00;5042531;28;20523;-65
2022/09/19 01:31:17;;;;;;;0.20;0.20;;;;;;;13.23;97.81;97120.97;5057390;28;20052;-66
2022/09/19 01:33:48;;;;;;;0.20;0.20;;;;;;;13.24;97.78;97111.59;5061182;28;20041;-64
2022/09/19 01:36:16;;;;;;;0.10;0.10;;;;;;;13.26;97.49;97113.97;5064455;28;20405;-64
2022/09/19 01:38:45;;;;;;;0.20;0.20;;;;;;;13.25;97.82;97124.16;5057914;28;20053;-65
2022/09/19 01:41:13;;;;;;;0.20;0.20;;;;;;;13.28;97.78;97106.97;5058218;28;20051;-66
2022/09/19 01:43:41;;;;;;;0.20;0.20;;;;;;;13.31;97.47;97105.47;5060418;28;20071;-66
2022/09/19 01:46:13;;;;;;;0.15;0.15;;;;;;;13.34;97.61;97110.22;5060614;28;20090;-66
2022/09/19 01:48:50;;;;;;;0.10;0.10;;;;;;;13.35;97.17;97106.34;5059334;28;20131;-66
2022/09/19 01:51:25;;;;;;;0.20;0.20;;;;;;;13.38;97.52;97124.03;5059860;28;20092;-65
2022/09/19 01:54:14;;;;;;;0.20;0.20;;;;;;;13.37;97.33;97115.00;5060766;28;20044;-65
2022/09/19 01:56:59;;;;;;;0.10;0.10;;;;;;;13.37;97.48;97108.72;5068086;28;20052;-66
2022/09/19 01:59:42;;;;;;;0.20;0.20;;;;;;;13.37;97.07;97101.28;5065426;28;20052;-65
2022/09/19 02:02:15;;;;;;;0.20;0.20;;;;;;;13.35;97.03;97092.63;5042609;28;20527;-66
2022/09/19 02:04:49;;;;;;;0.20;0.20;;;;;;;13.34;97.24;97080.81;5063088;28;20052;-64
2022/09/19 02:07:21;;;;;;;0.20;0.20;;;;;;;13.32;97.44;97082.34;5047358;28;20052;-66
2022/09/19 02:09:55;;;;;;;0.20;0.20;;;;;;;13.31;97.45;97086.25;5063825;28;20079;-65
2022/09/19 02:12:26;;;;;;;0.20;0.20;;;;;;;13.30;97.65;97088.19;5063410;28;20064;-66
2022/09/19 02:15:00;;;;;;;0.10;0.10;;;;;;;13.33;97.78;97086.69;5061868;28;20048;-65
2022/09/19 02:17:44;;;;;;;0.20;0.20;;;;;;;13.34;97.57;97099.25;5064034;28;20213;-65
2022/09/19 02:20:19;;;;;;;0.20;0.20;;;;;;;13.35;97.64;97081.63;5046921;28;20146;-66
2022/09/19 02:22:51;;;;;;;0.20;0.20;;;;;;;13.37;97.67;97071.09;5061937;28;20056;-66
2022/09/19 02:25:22;;;;;;;0.20;0.20;;;;;;;13.38;97.27;97074.63;5063963;28;20139;-65
2022/09/19 02:27:53;;;;;;;0.20;0.20;;;;;;;13.37;97.38;97082.06;5062713;28;20059;-66
2022/09/19 02:30:21;;;;;;;0.20;0.20;;;;;;;13.37;97.40;97075.78;5062629;28;20055;-66
2022/09/19 02:32:50;;;;;;;0.45;0.20;;;;;;;13.37;97.35;97075.78;5063381;28;20600;-64
2022/09/19 02:35:22;;;;;;;0.20;0.20;;;;;;;13.38;97.78;97075.41;5062340;28;20473;-65
2022/09/19 02:37:55;;;;;;;0.10;0.10;;;;;;;13.36;97.75;97074.22;5060812;28;20044;-66
2022/09/19 02:40:25;;;;;;;0.10;0.10;;;;;;;13.31;97.49;97073.31;5064216;28;20546;-65
2022/09/19 02:42:56;;;;;;;0.20;0.20;;;;;;;13.22;97.87;97064.50;5046259;28;20147;-65
2022/09/19 02:45:29;;;;;;;0.30;0.30;;;;;;;13.14;98.53;97068.25;5061958;28;20045;-65
2022/09/19 02:48:08;;;;;;;0.20;0.20;;;;;;;13.06;98.78;97059.06;5063581;28;20543;-65
2022/09/19 02:50:39;;;;;;;0.20;0.20;;;;;;;12.96;99.08;97056.91;5048592;28;20055;-65
2022/09/19 02:53:11;;;;;;;0.20;0.20;;;;;;;12.80;99.22;97046.75;5044134;28;20147;-65
2022/09/19 02:55:44;;;;;;;0.20;0.20;;;;;;;12.77;99.65;97059.22;5035169;28;20143;-66
2022/09/19 02:58:14;;;;;;;0.13;0.13;;;;;;;12.75;100.00;97050.56;5062715;28;20303;-64
2022/09/19 03:00:46;;;;;;;0.10;0.10;;;;;;;12.75;100.00;97049.75;5065226;28;20055;-66
2022/09/19 03:06:07;;;;;;;0.20;0.20;;;;;;;12.73;100.00;97052.06;5064799;28;20511;-66
2022/09/19 03:08:36;;;;;;;0.20;0.20;;;;;;;12.65;100.00;97053.84;5066088;28;20147;-64
2022/09/19 03:11:07;;;;;;;0.20;0.20;;;;;;;12.63;100.00;97047.91;5046445;28;20040;-64
2022/09/19 03:13:38;;;;;;;0.20;0.20;;;;;;;12.69;100.00;97045.72;5059774;28;20051;-66
2022/09/19 03:16:09;;;;;;;0.20;0.20;;;;;;;12.75;100.00;97047.00;5046399;28;20053;-65
2022/09/19 03:18:38;;;;;;;0.10;0.10;;;;;;;12.92;100.00;97045.84;5043762;28;20052;-65
2022/09/19 03:21:10;;;;;;;0.20;0.20;;;;;;;12.96;100.00;97048.66;5056776;28;20048;-66
2022/09/19 03:23:41;;;;;;;0.20;0.20;;;;;;;13.05;100.00;97046.50;5045422;28;20044;-66
2022/09/19 03:26:09;;;;;;;0.20;0.20;;;;;;;13.11;100.00;97039.59;5062397;28;20036;-65
2022/09/19 03:28:36;;;;;;;0.20;0.20;;;;;;;13.14;100.00;97051.78;5063481;28;20106;-66
2022/09/19 03:31:02;;;;;;;0.20;0.20;;;;;;;13.07;99.50;97030.47;5061837;28;20396;-66
2022/09/19 03:33:30;;;;;;;0.20;0.20;;;;;;;13.05;99.50;97030.03;5045625;28;20102;-66
2022/09/19 03:36:03;;;;;;;0.20;0.20;;;;;;;13.04;99.24;97033.94;5057669;28;20041;-66
2022/09/19 03:38:30;;;;;;;0.20;0.20;;;;;;;13.09;99.36;97030.13;5061260;28;20044;-67
2022/09/19 03:40:56;;;;;;;;;;;;;;;13.15;98.95;97032.22;5063282;28;20068;-67
2022/09/19 03:43:23;;;;;;;0.20;0.20;;;;;;;13.21;97.98;97020.97;5044584;28;19932;-66
2022/09/19 03:45:49;;;;;;;0.20;0.20;;;;;;;13.22;97.40;97023.38;5042807;28;20098;-64
2022/09/19 03:48:15;;;;;;;0.45;0.20;;;;;;;13.23;97.16;97032.38;5061323;28;20060;-66
2022/09/19 03:50:43;;;;;;;0.20;0.20;;;;;;;13.28;96.79;97018.38;5062045;28;20546;-66
2022/09/19 03:53:13;;;;;;;0.20;0.20;;;;;;;13.32;96.10;97009.06;5063307;28;20063;-66
2022/09/19 03:55:41;;;;;;;0.28;0.28;;;;;;;13.38;94.80;97008.78;5056184;28;20926;-66
2022/09/19 03:58:12;;;;;;;0.20;0.20;;;;;;;13.44;93.65;97010.91;5042171;28;20079;-66
2022/09/19 04:00:39;;;;;;;0.20;0.20;;;;;;;13.47;92.15;97010.16;5023472;28;20057;-67
2022/09/19 04:03:05;;;;;;;0.20;0.20;;;;;;;13.52;91.32;96995.38;5053086;28;20045;-66
2022/09/19 04:05:34;;;;;;;0.20;0.20;;;;;;;13.53;89.64;97034.56;5045864;28;20131;-65
2022/09/19 04:08:02;;;;;;;0.20;0.20;;;;;;;13.50;87.96;97035.31;5048693;28;20298;-66
2022/09/19 04:10:29;;;;;;;0.20;0.20;;;;;;;13.48;86.77;97027.41;5060998;28;20064;-65
2022/09/19 04:12:56;;;;;;;0.20;0.20;;;;;;;13.47;85.72;97058.78;5060523;28;20057;-65
2022/09/19 04:15:22;;;;;;;0.20;0.20;;;;;;;13.38;81.60;97072.69;5060515;28;20131;-65
2022/09/19 04:17:48;;;;;;;0.43;0.20;;;;;;;13.24;76.48;97073.19;5060778;28;20573;-65
2022/09/19 04:20:17;;;;;;;0.20;0.20;;;;;;;13.12;75.96;97068.63;5039665;28;20052;-65
2022/09/19 04:23:16;;;;;;;0.20;0.20;;;;;;;12.95;72.05;97078.03;5057312;28;20418;-65
2022/09/19 04:26:14;;;;;;;0.20;0.20;;;;;;;12.85;68.69;97087.59;5051165;28;20626;-64
2022/09/19 04:28:43;;;;;;;0.20;0.20;;;;;;;12.80;68.83;97090.63;4709648;28;10000154;-65
2022/09/19 04:31:12;;;;;;;0.20;0.20;;;;;;;12.76;69.62;97068.59;5057800;28;20467;-65
2022/09/19 04:33:38;;;;;;;0.20;0.20;;;;;;;12.73;69.16;97083.03;5042061;28;20053;-66
2022/09/19 04:36:05;;;;;;;0.20;0.20;;;;;;;12.69;69.28;97109.53;5051440;28;20066;-65
2022/09/19 04:38:36;;;;;;;0.20;0.20;;;;;;;12.66;70.47;97066.41;5058063;28;20873;-66
2022/09/19 04:41:06;;;;;;;0.20;0.20;;;;;;;12.66;70.26;97062.88;5056908;28;20041;-66
2022/09/19 04:43:32;;;;;;;;;;;;;;;12.52;69.40;97049.59;5041059;28;20048;-67
2022/09/19 04:46:06;;;;;;;0.20;0.20;;;;;;;12.61;69.55;97083.91;5058776;28;20343;-67
2022/09/19 04:48:44;;;;;;;0.20;0.20;;;;;;;12.58;69.51;97116.72;5058106;28;20567;-65
2022/09/19 04:51:11;;;;;;;0.20;0.20;;;;;;;12.53;69.54;97087.63;5033046;28;20100;-66
2022/09/19 04:53:39;;;;;;;0.32;0.30;;;;;;;12.51;69.01;97080.91;5023762;28;20041;-66
2022/09/19 04:56:05;;;;;;;0.25;0.25;;;;;;;12.52;69.32;97068.78;5020092;28;20512;-66
2022/09/19 04:58:37;;;;;;;0.20;0.20;;;;;;;12.53;69.65;97084.09;5016258;28;20131;-66
2022/09/19 05:01:04;;;;;;;0.20;0.20;;;;;;;12.45;69.60;97105.84;5020143;28;20239;-66
2022/09/19 05:03:30;;;;;;;0.20;0.20;;;;;;;12.31;69.44;97098.03;5024533;28;20111;-66
2022/09/19 05:05:59;;;;;;;0.20;0.20;;;;;;;12.23;70.06;97090.00;5037177;28;20088;-66
2022/09/19 05:08:29;;;;;;;1.45;0.28;;;;;;;12.14;69.66;97090.97;5037589;28;20453;-66
2022/09/19 05:11:01;;;;;;;0.20;0.20;;;;;;;12.05;69.27;97093.06;5036684;28;20068;-66
2022/09/19 05:13:31;;;;;;;0.28;0.20;;;;;;;12.03;70.02;97111.78;5036179;28;20076;-65
2022/09/19 05:16:00;;;;;;;0.20;0.20;;;;;;;11.96;69.98;97098.66;5037744;28;20140;-67
2022/09/19 05:18:28;;;;;;;0.10;0.10;;;;;;;11.92;69.95;97090.34;5048540;28;20415;-66
2022/09/19 05:20:56;;;;;;;0.20;0.20;;;;;;;11.90;69.85;97089.13;5057900;28;21001;-66
2022/09/19 05:23:23;;;;;;;0.20;0.20;;;;;;;11.88;69.90;97067.56;5043941;28;20098;-66
2022/09/19 05:25:56;;;;;;;0.20;0.20;;;;;;;11.86;69.89;97080.00;5059646;28;20061;-67
2022/09/19 05:28:27;;;;;;;0.20;0.20;;;;;;;11.90;69.81;97080.91;5054070;28;20098;-66
2022/09/19 05:30:55;;;;;;;0.20;0.20;;;;;;;11.92;69.36;97076.66;5063092;28;20056;-67
2022/09/19 05:33:29;;;;;;;0.28;0.28;;;;;;;11.92;69.36;97145.09;5063171;28;20082;-67
2022/09/19 05:36:00;;;;;;;0.25;0.25;;;;;;;11.94;69.59;97072.78;5058209;28;20456;-66
2022/09/19 05:38:46;;;;;;;0.20;0.20;;;;;;;11.88;69.55;97091.41;5039937;28;20334;-67
2022/09/19 05:41:30;;;;;;;0.30;0.30;;;;;;;11.85;70.13;97094.84;5051937;28;20048;-66
2022/09/19 05:44:03;;;;;;;0.20;0.20;;;;;;;11.82;70.31;97071.72;5065375;28;20041;-67
2022/09/19 05:46:29;;;;;;;0.20;0.20;;;;;;;11.82;70.39;97076.38;5065748;28;20067;-67
2022/09/19 05:48:55;;;;;;;0.20;0.20;;;;;;;11.81;70.55;97088.47;5063482;28;20629;-67
2022/09/19 05:51:21;;;;;;;0.20;0.20;;;;;;;11.87;70.49;97101.56;5055042;28;20040;-67
2022/09/19 05:53:55;;;;;;;0.20;0.20;;;;;;;11.91;69.76;97082.50;5047310;28;20596;-67
2022/09/19 05:56:38;;;;;;;1.00;0.20;;;;;;;11.88;69.38;97084.00;5012409;28;20041;-66
2022/09/19 05:59:08;;;;;;;0.17;0.17;;;;;;;11.88;69.20;97140.69;5026726;28;20100;-66
2022/09/19 06:01:37;;;;;;;0.20;0.20;;;;;;;11.85;69.95;97095.66;5032079;28;20080;-65
2022/09/19 06:04:07;;;;;;;0.20;0.20;;;;;;;11.86;69.00;97091.75;5031737;28;20063;-66
2022/09/19 06:06:36;;;;;;;0.20;0.20;;;;;;;11.77;69.43;97094.66;5044755;28;20095;-67
2022/09/19 06:09:03;;;;;;;0.22;0.20;;;;;;;11.72;69.21;97081.22;5044277;28;20049;-67
2022/09/19 06:11:35;;;;;;;0.30;0.20;;;;;;;11.61;68.95;97112.97;5049335;28;20044;-67
2022/09/19 06:14:15;;;;;;;0.20;0.20;;;;;;;11.60;69.13;97097.69;5043574;28;20075;-67
2022/09/19 06:16:44;;;;;;;0.20;0.20;;;;;;;11.69;68.40;97114.75;5042787;28;20045;-65
2022/09/19 06:19:30;;;;;;;0.20;0.20;;;;;;;11.67;68.01;97083.41;5040669;28;20048;-65
2022/09/19 06:22:07;;;;;;;0.20;0.20;;;;;;;11.75;68.23;97080.53;5043216;28;20426;-64
2022/09/19 06:24:35;;;;;;;0.30;0.30;;;;;;;11.91;68.31;97085.25;5031599;28;20063;-64
2022/09/19 06:27:03;;;;;;;0.40;0.30;;;;;;;12.00;66.54;97083.13;5045589;28;20376;-65
2022/09/19 06:29:29;;;;;;;0.30;0.30;;;;;;;11.98;67.01;97088.16;5036237;28;20053;-65
2022/09/19 06:32:18;;;;;;;0.20;0.20;;;;;;;11.76;66.75;97100.47;5041204;28;20059;-66
2022/09/19 06:34:45;;;;;;;0.20;0.20;;;;;;;11.73;67.54;97090.22;5043019;28;20061;-67
2022/09/19 06:37:12;;;;;;;0.10;0.10;;;;;;;11.67;69.02;97086.16;5047504;28;20048;-65
2022/09/19 06:39:38;;;;;;;0.20;0.20;;;;;;;11.52;69.74;97084.94;5026570;28;20052;-65
2022/09/19 06:42:30;;;;;;;0.10;0.10;;;;;;;11.37;70.69;97100.94;5042082;28;20527;-67
2022/09/19 06:45:19;;;;;;;0.20;0.20;;;;;;;11.27;70.88;97087.75;5030338;28;20567;-66
2022/09/19 06:48:15;;;;;;;0.20;0.20;;;;;;;11.32;70.49;97093.78;5039044;28;20538;-66
2022/09/19 06:50:56;;;;;;;0.20;0.20;;;;;;;11.44;70.13;97092.13;5018560;28;20630;-65
2022/09/19 06:53:23;;;;;;;0.40;0.40;;;;;;;11.59;69.19;97105.09;5041998;28;20059;-67
2022/09/19 06:55:56;;;;;;;0.47;0.30;;;;;;;11.72;68.61;97107.78;5008223;28;20500;-66
2022/09/19 06:58:24;;;;;;;0.20;0.20;;;;;;;11.78;67.53;97111.84;5043749;28;20428;-66
2022/09/19 07:00:51;;;;;;;0.20;0.20;;;;;;;11.75;66.31;97118.84;5024481;28;20115;-67
2022/09/19 07:03:20;;;;;;;0.20;0.20;;;;;;;11.70;66.86;97107.34;5035278;28;20045;-66
2022/09/19 07:06:07;;;;;;;0.30;0.30;;;;;;;11.94;66.19;97122.88;5043882;28;20435;-66
2022/09/19 07:08:58;;;;;;;0.20;0.20;;;;;;;11.97;65.00;97152.28;5022385;28;20048;-64
2022/09/19 07:11:24;;;;;;;0.28;0.28;;;;;;;12.08;64.32;97113.47;4684758;28;10000404;-65
2022/09/19 07:13:51;;;;;;;0.30;0.30;;;;;;;12.36;63.52;97123.59;5033134;28;20406;-65
2022/09/19 07:16:18;;;;;;;0.20;0.20;;;;;;;12.17;63.11;97114.09;5036701;28;20048;-65
2022/09/19 07:18:46;;;;;;;0.10;0.10;;;;;;;11.73;64.77;97159.47;5034198;28;20119;-65
2022/09/19 07:21:37;;;;;;;0.10;0.10;;;;;;;11.31;66.06;97094.13;5034045;28;20483;-64
2022/09/19 07:24:09;;;;;;;0.35;0.20;;;;;;;11.12;66.92;97142.03;5036056;28;20053;-65
2022/09/19 07:27:01;;;;;;;0.20;0.20;;;;;;;10.78;68.26;97169.47;5038824;28;20049;-64
2022/09/19 07:29:28;;;;;;;0.10;0.10;;;;;;;10.57;69.44;97147.69;5043777;28;20446;-65
2022/09/19 07:31:54;;;;;;;0.60;0.20;;;;;;;10.54;69.86;97166.72;5040015;28;20056;-64
2022/09/19 07:34:22;;;;;;;0.28;0.20;;;;;;;10.63;69.76;97164.66;5021945;28;20118;-64
2022/09/19 07:36:51;;;;;;;0.10;0.10;;;;;;;10.68;68.54;97183.56;5020549;28;20056;-65
2022/09/19 07:39:22;;;;;;;0.10;0.10;;;;;;;10.54;69.38;97151.09;5025121;28;20037;-66
2022/09/19 07:42:20;;;;;;;0.10;0.10;;;;;;;10.50;69.53;97169.31;5029681;28;20053;-66
2022/09/19 07:44:58;;;;;;;0.10;0.10;;;;;;;10.30;70.22;97140.91;5030971;28;20040;-65
2022/09/19 07:47:47;;;;;;;0.10;0.10;;;;;;;10.25;70.01;97171.94;5037110;28;20060;-66
2022/09/19 07:50:23;;;;;;;0.10;0.10;;;;;;;10.25;69.73;97182.88;5034801;28;20041;-65
2022/09/19 07:53:11;;;;;;;0.10;0.10;;;;;;;10.29;68.58;97175.59;5035470;28;20045;-65
2022/09/19 07:55:38;;;;;;;0.10;0.10;;;;;;;10.31;68.53;97203.38;5039274;28;20056;-66
2022/09/19 07:58:05;;;;;;;0.10;0.10;;;;;;;10.40;68.12;97180.63;5047095;28;20428;-65
2022/09/19 08:00:42;;;;;;;0.43;0.17;;;;;;;10.40;67.87;97178.72;5020981;28;20136;-66
2022/09/19 08:03:15;;;;;;;1.30;0.10;;;;;;;10.41;68.32;97161.22;5036288;28;20041;-66
2022/09/19 08:05:48;;;;;;;0.63;0.10;;;;;;;10.39;67.64;97192.69;5024675;28;20049;-65
2022/09/19 08:08:22;;;;;;;0.10;0.10;;;;;;;10.26;67.28;97165.34;5024556;28;20060;-66
2022/09/19 08:10:51;;;;;;;0.10;0.10;;;;;;;10.29;66.98;97207.59;5026318;28;20542;-66
2022/09/19 08:13:19;;;;;;;0.10;0.10;;;;;;;10.25;67.54;97217.59;5026037;28;20040;-65
2022/09/19 08:15:48;;;;;;;0.10;0.10;;;;;;;10.28;67.44;97154.88;5015245;28;20053;-65
2022/09/19 08:18:18;;;;;;;0.15;0.10;;;;;;;10.33;66.72;97239.34;5032739;28;20281;-65
2022/09/19 08:20:48;;;;;;;0.10;0.10;;;;;;;10.33;66.48;97184.72;5011335;28;20075;-67
2022/09/19 08:23:16;;;;;;;0.10;0.10;;;;;;;10.36;66.62;97178.59;5023614;28;20063;-67
2022/09/19 08:25:51;;;;;;;0.20;0.20;;;;;;;10.50;66.25;97172.06;5028030;28;20045;-65
2022/09/19 08:28:22;;;;;;;0.10;0.10;;;;;;;10.68;65.42;97145.31;5038480;28;20045;-65
2022/09/19 08:30:52;;;;;;;0.20;0.20;;;;;;;10.90;64.07;97193.25;5036152;28;20519;-65
2022/09/19 08:33:18;;;;;;;;;;;;;;;11.38;63.48;97165.44;5042897;28;20423;-64
2022/09/19 08:35:47;;;;;;;0.10;0.10;;;;;;;11.66;62.00;97153.75;5044002;28;20377;-65
2022/09/19 08:38:24;;;;;;;0.20;0.20;;;;;;;11.81;60.98;97189.75;5040197;28;20040;-65
2022/09/19 08:41:21;;;;;;;0.20;0.20;;;;;;;11.54;61.27;97167.47;5045223;28;20051;-66
2022/09/19 08:43:50;;;;;;;;;;;;;;;11.31;61.45;97173.44;5025621;28;20045;-66
2022/09/19 08:46:20;;;;;;;0.10;0.10;;;;;;;11.09;62.43;97182.91;5027097;28;19931;-65
2022/09/19 08:48:57;;;;;;;0.30;0.15;;;;;;;10.98;62.61;97180.63;5041586;28;20048;-65
2022/09/19 08:51:28;;;;;;;0.55;0.22;;;;;;;10.83;63.71;97175.84;5046802;28;20040;-65
2022/09/19 08:54:01;;;;;;;0.28;0.20;;;;;;;10.75;63.41;97205.69;5043648;28;20059;-65
2022/09/19 08:56:29;;;;;;;0.45;0.13;;;;;;;10.71;64.00;97209.41;5042840;28;20040;-65
2022/09/19 08:59:01;;;;;;;0.10;0.10;;;;;;;10.68;64.79;97190.97;5041579;28;20055;-67
2022/09/19 09:01:57;;;;;;;0.20;0.20;;;;;;;10.72;65.38;97179.03;5042748;28;20073;-67
2022/09/19 09:04:27;;;;;;;0.20;0.20;;;;;;;10.85;65.08;97188.03;5046061;28;20045;-67
2022/09/19 09:07:14;;;;;;;0.10;0.10;;;;;;;10.77;65.21;97183.47;5046861;28;20065;-67
2022/09/19 09:10:04;;;;;;;0.10;0.10;;;;;;;10.57;67.42;97153.16;5046603;28;20045;-66
2022/09/19 09:12:44;;;;;;;0.10;0.10;;;;;;;10.36;68.96;97175.84;5044738;28;20044;-67
2022/09/19 09:15:20;;;;;;;0.10;0.10;;;;;;;10.29;69.16;97183.78;5043910;28;20504;-67
2022/09/19 09:18:02;;;;;;;0.10;0.10;;;;;;;10.26;69.47;97161.84;5046852;28;20654;-67
2022/09/19 09:20:41;;;;;;;0.10;0.10;;;;;;;10.15;71.01;97188.78;5028322;28;20419;-67
2022/09/19 09:23:15;;;;;;;0.10;0.10;;;;;;;9.99;72.94;97222.16;5047513;28;20057;-67
2022/09/19 09:26:08;;;;;;;0.10;0.10;;;;;;;9.70;75.18;97201.16;5042633;28;20413;-67
2022/09/19 09:28:42;;;;;;;0.20;0.20;;;;;;;9.62;77.96;97211.00;5024070;28;20528;-66
2022/09/19 09:31:28;;;;;;;0.10;0.10;;;;;;;9.51;76.86;97227.75;5023911;28;20536;-64
2022/09/19 09:34:05;;;;;;;0.10;0.10;;;;;;;9.46;78.55;97216.28;4686914;28;10000822;-66
2022/09/19 09:36:36;;;;;;;0.17;0.15;;;;;;;9.45;80.26;97211.94;5044959;28;20060;-68
2022/09/19 09:39:13;;;;;;;0.10;0.10;;;;;;;9.36;79.89;97231.06;5037951;28;20056;-67
2022/09/19 09:41:45;;;;;;;0.10;0.10;;;;;;;9.44;78.90;97229.41;5051648;28;20045;-67
2022/09/19 09:44:44;;;;;;;0.10;0.10;;;;;;;9.60;77.48;97229.66;5039047;28;20419;-67
2022/09/19 09:47:26;;;;;;;0.17;0.17;;;;;;;9.88;76.53;97226.41;5039181;28;20067;-66
2022/09/19 09:50:16;;;;;;;0.10;0.10;;;;;;;10.21;74.82;97222.91;5034705;28;20294;-66
2022/09/19 09:52:51;;;;;;;0.10;0.10;;;;;;;10.35;73.60;97217.16;5045208;28;20037;-66
2022/09/19 09:58:28;;;;;;;0.10;0.10;;;;;;;10.37;73.42;97214.88;5041465;28;20083;-65
2022/09/19 10:04:07;;;;;;;0.10;0.10;;;;;;;10.33;72.64;97214.78;5028269;28;20592;-66
2022/09/19 10:06:42;;;;;;;0.10;0.10;;;;;;;10.36;72.77;97211.38;5047211;28;20060;-65
2022/09/19 10:09:14;;;;;;;0.10;0.10;;;;;;;10.38;73.38;97207.50;5041979;28;20057;-64
2022/09/19 10:11:51;;;;;;;0.15;0.15;;;;;;;10.36;73.12;97216.00;5023048;28;20044;-64
2022/09/19 10:14:23;;;;;;;0.10;0.10;;;;;;;10.25;73.57;97184.81;5040200;28;20702;-66
2022/09/19 10:16:53;;;;;;;0.10;0.10;;;;;;;10.18;73.58;97208.00;5044186;28;20049;-65
2022/09/19 10:19:30;;;;;;;0.10;0.10;;;;;;;10.08;74.12;97205.69;5038533;28;20160;-65
2022/09/19 10:21:57;;;;;;;0.10;0.10;;;;;;;10.04;75.09;97212.94;5037968;28;20037;-65
2022/09/19 10:24:47;;;;;;;0.10;0.10;;;;;;;10.08;73.31;97200.22;5041571;28;20049;-65
2022/09/19 10:27:23;;;;;;;0.32;0.10;;;;;;;10.16;73.43;97199.34;5039049;28;20068;-65
2022/09/19 10:29:53;;;;;;;0.10;0.10;;;;;;;10.17;71.93;97217.31;5043383;28;20047;-65
2022/09/19 10:32:23;;;;;;;0.10;0.10;;;;;;;10.20;72.34;97218.59;5045586;28;20471;-64
2022/09/19 10:35:27;;;;;;;0.10;0.10;;;;;;;10.25;72.08;97193.00;5043586;28;20057;-65
2022/09/19 10:37:59;;;;;;;0.10;0.10;;;;;;;10.23;71.88;97226.09;5008207;28;20043;-64
2022/09/19 10:40:26;;;;;;;0.38;0.10;;;;;;;10.10;72.37;97178.03;5040357;28;20179;-65
2022/09/19 10:42:55;;;;;;;0.10;0.10;;;;;;;10.07;73.26;97168.59;5038971;28;20049;-65
2022/09/19 10:45:27;;;;;;;0.10;0.10;;;;;;;9.96;73.23;97200.97;5035721;28;20072;-65
2022/09/19 10:47:59;;;;;;;0.45;0.10;;;;;;;9.92;73.44;97175.47;5040698;28;20061;-65
2022/09/19 10:50:27;;;;;;;0.10;0.10;;;;;;;9.94;74.16;97181.38;5037671;28;20136;-65
2022/09/19 10:53:01;;;;;;;0.10;0.10;;;;;;;9.76;76.19;97208.81;5044838;28;20064;-65
2022/09/19 10:55:32;;;;;;;0.10;0.10;;;;;;;9.31;78.58;97177.53;5043342;28;20086;-65
2022/09/19 10:58:03;;;;;;;0.10;0.10;;;;;;;9.32;79.51;97170.13;5043563;28;20048;-64
2022/09/19 11:00:44;;;;;;;0.10;0.10;;;;;;;9.28;80.39;97172.72;5042094;28;20049;-66
2022/09/19 11:03:23;;;;;;;0.20;0.10;;;;;;;9.21;81.12;97194.25;5044537;28;20504;-65
2022/09/19 11:06:03;;;;;;;0.10;0.10;;;;;;;9.15;82.94;97187.41;5010715;28;20080;-67
2022/09/19 11:08:30;;;;;;;0.10;0.10;;;;;;;8.94;84.46;97177.25;5039069;28;20056;-66
2022/09/19 11:10:59;;;;;;;0.10;0.10;;;;;;;8.77;85.93;97162.56;5039261;28;20044;-67
2022/09/19 11:13:34;;;;;;;0.43;0.15;;;;;;;8.61;87.60;97173.22;5039605;28;20567;-67
2022/09/19 11:16:25;;;;;;;0.28;0.20;;;;;;;8.61;88.76;97170.50;5041747;28;20123;-67
2022/09/19 11:19:07;;;;;;;0.10;0.10;;;;;;;8.56;89.41;97178.81;5037505;28;20052;-67
2022/09/19 11:21:47;;;;;;;0.10;0.10;;;;;;;8.46;89.75;97169.06;5038005;28;20132;-67
2022/09/19 11:24:53;;;;;;;0.10;0.10;;;;;;;8.45;91.13;97188.47;5037550;28;20073;-66
2022/09/19 11:27:32;;;;;;;0.10;0.10;;;;;;;8.42;91.81;97175.47;5031216;28;20061;-66
2022/09/19 11:30:11;;;;;;;0.10;0.10;;;;;;;8.37;93.12;97166.38;5029827;28;20044;-66
2022/09/19 11:33:02;;;;;;;0.10;0.10;;;;;;;8.35;93.76;97144.13;5025191;28;20052;-66
2022/09/19 11:35:52;;;;;;;0.10;0.10;;;;;;;8.38;94.47;97233.31;5040577;28;20750;-66
2022/09/19 11:38:32;;;;;;;0.00;0.00;;;;;;;8.40;94.37;97186.72;5038701;28;20535;-66
2022/09/19 11:41:24;;;;;;;0.10;0.10;;;;;;;8.46;94.35;97176.44;5043160;28;20051;-66
2022/09/19 11:44:06;;;;;;;0.10;0.10;;;;;;;8.46;94.44;97166.34;5030946;28;20389;-65
2022/09/19 11:46:44;;;;;;;0.10;0.10;;;;;;;8.47;94.56;97195.16;5029408;28;20075;-65
2022/09/19 11:49:47;;;;;;;0.10;0.10;;;;;;;8.50;94.88;97201.94;5025958;28;20056;-66
2022/09/19 11:52:25;;;;;;;0.00;0.00;;;;;;;8.47;95.35;97205.28;5024248;28;20064;-66
2022/09/19 11:55:14;;;;;;;0.10;0.10;;;;;;;8.37;95.82;97203.69;5044702;28;21044;-67
2022/09/19 11:57:46;;;;;;;0.10;0.10;;;;;;;8.34;96.54;97234.28;5043579;28;20431;-67
2022/09/19 12:00:20;;;;;;;0.10;0.10;;;;;;;8.31;97.38;97191.38;5042517;28;20049;-68
2022/09/19 12:03:10;;;;;;;0.10;0.10;;;;;;;8.32;97.53;97209.28;5042362;28;20049;-67
2022/09/19 12:05:56;;;;;;;0.10;0.10;;;;;;;8.30;97.77;97215.09;5042868;28;20071;-68
2022/09/19 12:08:33;;;;;;;0.20;0.10;;;;;;;8.35;97.86;97222.25;5040240;28;20059;-67
2022/09/19 12:11:08;;;;;;;0.10;0.10;;;;;;;8.32;97.16;97221.00;5033224;28;20134;-67
2022/09/19 12:13:42;;;;;;;0.10;0.10;;;;;;;8.31;97.48;97218.59;5039404;28;20045;-68
2022/09/19 12:16:12;;;;;;;0.10;0.10;;;;;;;8.31;96.79;97237.66;5043159;28;20045;-68
2022/09/19 12:18:45;;;;;;;0.10;0.10;;;;;;;8.31;96.82;97218.59;5037865;28;20052;-67